sensor_id;sensor_type;location;lat;lon;timestamp;P1;durP1;ratioP1;P2;durP2;ratioP2
8042;SDS011;4064;48.132;11.366;2022-08-25T00:01:15;10.00;;;5.03;;
8042;SDS011;4064;48.132;11.366;2022-08-25T00:03:44;7.30;;;4.80;;
8042;SDS011;4064;48.132;11.366;2022-08-25T00:06:10;6.60;;;5.20;;
8042;SDS011;4064;48.132;11.366;2022-08-25T00:08:37;6.00;;;5.13;;
8042;SDS011;4064;48.132;11.366;2022-08-25T00:11:05;5.07;;;4.67;;
8042;SDS011;4064;48.132;11.366;2022-08-25T00:13:32;5.90;;;5.40;;
8042;SDS011;4064;48.132;11.366;2022-08-25T00:15:58;7.40;;;6.23;;
8042;SDS011;4064;48.132;11.366;2022-08-25T00:18:24;6.90;;;6.00;;
8042;SDS011;4064;48.132;11.366;2022-08-25T00:20:50;8.40;;;5.73;;
8042;SDS011;4064;48.132;11.366;2022-08-25T00:23:16;7.10;;;6.50;;
8042;SDS011;4064;48.132;11.366;2022-08-25T00:25:43;7.30;;;6.00;;
8042;SDS011;4064;48.132;11.366;2022-08-25T00:28:09;7.00;;;6.40;;
8042;SDS011;4064;48.132;11.366;2022-08-25T00:30:34;7.30;;;6.30;;
8042;SDS011;4064;48.132;11.366;2022-08-25T00:33:01;7.17;;;6.47;;
8042;SDS011;4064;48.132;11.366;2022-08-25T00:35:28;7.23;;;6.53;;
8042;SDS011;4064;48.132;11.366;2022-08-25T00:37:54;8.60;;;6.73;;
8042;SDS011;4064;48.132;11.366;2022-08-25T00:40:21;7.20;;;6.60;;
8042;SDS011;4064;48.132;11.366;2022-08-25T00:42:49;7.37;;;6.67;;
8042;SDS011;4064;48.132;11.366;2022-08-25T00:45:15;7.00;;;6.30;;
8042;SDS011;4064;48.132;11.366;2022-08-25T00:47:40;8.47;;;6.67;;
8042;SDS011;4064;48.132;11.366;2022-08-25T00:50:06;7.83;;;6.70;;
8042;SDS011;4064;48.132;11.366;2022-08-25T00:52:35;11.53;;;6.17;;
8042;SDS011;4064;48.132;11.366;2022-08-25T00:55:06;7.37;;;6.67;;
8042;SDS011;4064;48.132;11.366;2022-08-25T00:58:02;8.33;;;7.57;;
8042;SDS011;4064;48.132;11.366;2022-08-25T01:00:40;6.53;;;5.93;;
8042;SDS011;4064;48.132;11.366;2022-08-25T01:03:11;8.00;;;7.27;;
8042;SDS011;4064;48.132;11.366;2022-08-25T01:05:37;6.80;;;6.20;;
8042;SDS011;4064;48.132;11.366;2022-08-25T01:08:05;9.07;;;7.30;;
8042;SDS011;4064;48.132;11.366;2022-08-25T01:10:38;9.50;;;7.50;;
8042;SDS011;4064;48.132;11.366;2022-08-25T01:13:12;8.00;;;7.20;;
8042;SDS011;4064;48.132;11.366;2022-08-25T01:15:38;7.20;;;6.50;;
8042;SDS011;4064;48.132;11.366;2022-08-25T01:18:05;7.20;;;6.50;;
8042;SDS011;4064;48.132;11.366;2022-08-25T01:20:32;8.47;;;7.67;;
8042;SDS011;4064;48.132;11.366;2022-08-25T01:22:59;8.77;;;7.87;;
8042;SDS011;4064;48.132;11.366;2022-08-25T01:28:03;7.37;;;6.60;;
8042;SDS011;4064;48.132;11.366;2022-08-25T01:30:29;9.70;;;8.07;;
8042;SDS011;4064;48.132;11.366;2022-08-25T01:32:55;9.53;;;8.40;;
8042;SDS011;4064;48.132;11.366;2022-08-25T01:35:21;8.73;;;7.37;;
8042;SDS011;4064;48.132;11.366;2022-08-25T01:37:48;9.13;;;8.23;;
8042;SDS011;4064;48.132;11.366;2022-08-25T01:40:14;10.27;;;8.50;;
8042;SDS011;4064;48.132;11.366;2022-08-25T01:45:12;8.53;;;7.47;;
8042;SDS011;4064;48.132;11.366;2022-08-25T01:47:39;9.00;;;7.43;;
8042;SDS011;4064;48.132;11.366;2022-08-25T01:50:04;9.17;;;7.97;;
8042;SDS011;4064;48.132;11.366;2022-08-25T01:52:33;10.13;;;9.17;;
8042;SDS011;4064;48.132;11.366;2022-08-25T01:55:07;8.97;;;7.67;;
8042;SDS011;4064;48.132;11.366;2022-08-25T01:57:33;9.00;;;8.10;;
8042;SDS011;4064;48.132;11.366;2022-08-25T01:59:58;9.23;;;8.33;;
8042;SDS011;4064;48.132;11.366;2022-08-25T02:02:25;10.00;;;8.67;;
8042;SDS011;4064;48.132;11.366;2022-08-25T02:04:52;10.97;;;9.10;;
8042;SDS011;4064;48.132;11.366;2022-08-25T02:07:18;11.80;;;8.53;;
8042;SDS011;4064;48.132;11.366;2022-08-25T02:09:43;10.30;;;8.63;;
8042;SDS011;4064;48.132;11.366;2022-08-25T02:12:09;9.10;;;8.20;;
8042;SDS011;4064;48.132;11.366;2022-08-25T02:14:35;10.73;;;8.37;;
8042;SDS011;4064;48.132;11.366;2022-08-25T02:17:03;9.23;;;8.33;;
8042;SDS011;4064;48.132;11.366;2022-08-25T02:19:31;10.80;;;7.07;;
8042;SDS011;4064;48.132;11.366;2022-08-25T02:21:58;11.03;;;8.60;;
8042;SDS011;4064;48.132;11.366;2022-08-25T02:24:24;10.63;;;9.30;;
8042;SDS011;4064;48.132;11.366;2022-08-25T02:26:50;9.03;;;8.20;;
8042;SDS011;4064;48.132;11.366;2022-08-25T02:29:15;8.20;;;7.40;;
8042;SDS011;4064;48.132;11.366;2022-08-25T02:31:42;9.57;;;8.77;;
8042;SDS011;4064;48.132;11.366;2022-08-25T02:34:08;7.70;;;6.90;;
8042;SDS011;4064;48.132;11.366;2022-08-25T02:36:35;8.30;;;7.50;;
8042;SDS011;4064;48.132;11.366;2022-08-25T02:39:02;7.60;;;6.40;;
8042;SDS011;4064;48.132;11.366;2022-08-25T02:41:29;7.90;;;7.10;;
8042;SDS011;4064;48.132;11.366;2022-08-25T02:43:57;8.07;;;7.20;;
8042;SDS011;4064;48.132;11.366;2022-08-25T02:46:25;7.37;;;6.67;;
8042;SDS011;4064;48.132;11.366;2022-08-25T02:48:51;7.70;;;6.90;;
8042;SDS011;4064;48.132;11.366;2022-08-25T02:51:18;8.73;;;6.90;;
8042;SDS011;4064;48.132;11.366;2022-08-25T02:53:46;7.10;;;6.40;;
8042;SDS011;4064;48.132;11.366;2022-08-25T02:56:12;8.90;;;6.53;;
8042;SDS011;4064;48.132;11.366;2022-08-25T02:58:38;9.77;;;7.67;;
8042;SDS011;4064;48.132;11.366;2022-08-25T03:01:05;7.67;;;6.27;;
8042;SDS011;4064;48.132;11.366;2022-08-25T03:03:31;8.93;;;7.30;;
8042;SDS011;4064;48.132;11.366;2022-08-25T03:05:58;7.93;;;7.13;;
8042;SDS011;4064;48.132;11.366;2022-08-25T03:08:23;7.63;;;6.90;;
8042;SDS011;4064;48.132;11.366;2022-08-25T03:10:49;7.93;;;7.10;;
8042;SDS011;4064;48.132;11.366;2022-08-25T03:13:16;7.90;;;7.20;;
8042;SDS011;4064;48.132;11.366;2022-08-25T03:15:42;9.80;;;8.03;;
8042;SDS011;4064;48.132;11.366;2022-08-25T03:18:09;9.20;;;8.30;;
8042;SDS011;4064;48.132;11.366;2022-08-25T03:20:39;10.00;;;7.90;;
8042;SDS011;4064;48.132;11.366;2022-08-25T03:23:05;13.33;;;8.50;;
8042;SDS011;4064;48.132;11.366;2022-08-25T03:25:32;9.97;;;8.97;;
8042;SDS011;4064;48.132;11.366;2022-08-25T03:28:16;8.70;;;7.87;;
8042;SDS011;4064;48.132;11.366;2022-08-25T03:30:42;10.60;;;9.10;;
8042;SDS011;4064;48.132;11.366;2022-08-25T03:33:08;10.13;;;8.93;;
8042;SDS011;4064;48.132;11.366;2022-08-25T03:35:34;10.40;;;9.40;;
8042;SDS011;4064;48.132;11.366;2022-08-25T03:38:00;9.37;;;8.23;;
8042;SDS011;4064;48.132;11.366;2022-08-25T03:40:27;9.57;;;8.53;;
8042;SDS011;4064;48.132;11.366;2022-08-25T03:42:53;8.23;;;7.43;;
8042;SDS011;4064;48.132;11.366;2022-08-25T03:45:21;8.23;;;7.37;;
8042;SDS011;4064;48.132;11.366;2022-08-25T03:47:47;10.07;;;9.07;;
8042;SDS011;4064;48.132;11.366;2022-08-25T03:50:14;11.60;;;9.77;;
8042;SDS011;4064;48.132;11.366;2022-08-25T03:52:42;11.60;;;8.70;;
8042;SDS011;4064;48.132;11.366;2022-08-25T03:55:08;10.50;;;7.70;;
8042;SDS011;4064;48.132;11.366;2022-08-25T03:57:36;9.47;;;8.57;;
8042;SDS011;4064;48.132;11.366;2022-08-25T04:00:03;9.43;;;8.00;;
8042;SDS011;4064;48.132;11.366;2022-08-25T04:02:30;9.33;;;8.40;;
8042;SDS011;4064;48.132;11.366;2022-08-25T04:04:57;8.80;;;7.90;;
8042;SDS011;4064;48.132;11.366;2022-08-25T04:07:23;8.83;;;7.50;;
8042;SDS011;4064;48.132;11.366;2022-08-25T04:09:49;9.50;;;6.77;;
8042;SDS011;4064;48.132;11.366;2022-08-25T04:12:17;8.73;;;6.07;;
8042;SDS011;4064;48.132;11.366;2022-08-25T04:14:43;6.37;;;5.73;;
8042;SDS011;4064;48.132;11.366;2022-08-25T04:17:09;6.27;;;5.20;;
8042;SDS011;4064;48.132;11.366;2022-08-25T04:19:34;5.70;;;5.10;;
8042;SDS011;4064;48.132;11.366;2022-08-25T04:22:00;6.87;;;5.40;;
8042;SDS011;4064;48.132;11.366;2022-08-25T04:24:26;6.37;;;5.00;;
8042;SDS011;4064;48.132;11.366;2022-08-25T04:26:55;7.47;;;4.60;;
8042;SDS011;4064;48.132;11.366;2022-08-25T04:29:22;5.93;;;5.33;;
8042;SDS011;4064;48.132;11.366;2022-08-25T04:31:49;6.60;;;4.97;;
8042;SDS011;4064;48.132;11.366;2022-08-25T04:34:16;5.63;;;4.93;;
8042;SDS011;4064;48.132;11.366;2022-08-25T04:36:43;5.60;;;5.10;;
8042;SDS011;4064;48.132;11.366;2022-08-25T04:39:09;6.10;;;5.50;;
8042;SDS011;4064;48.132;11.366;2022-08-25T04:41:35;6.40;;;5.80;;
8042;SDS011;4064;48.132;11.366;2022-08-25T04:44:01;6.10;;;5.60;;
8042;SDS011;4064;48.132;11.366;2022-08-25T04:46:31;7.43;;;6.60;;
8042;SDS011;4064;48.132;11.366;2022-08-25T04:48:59;6.33;;;5.10;;
8042;SDS011;4064;48.132;11.366;2022-08-25T04:51:27;7.27;;;5.93;;
8042;SDS011;4064;48.132;11.366;2022-08-25T04:53:59;6.13;;;5.53;;
8042;SDS011;4064;48.132;11.366;2022-08-25T04:56:28;6.40;;;5.70;;
8042;SDS011;4064;48.132;11.366;2022-08-25T04:58:56;8.60;;;6.20;;
8042;SDS011;4064;48.132;11.366;2022-08-25T05:01:31;9.03;;;6.90;;
8042;SDS011;4064;48.132;11.366;2022-08-25T05:03:59;7.30;;;6.60;;
8042;SDS011;4064;48.132;11.366;2022-08-25T05:06:27;8.63;;;7.70;;
8042;SDS011;4064;48.132;11.366;2022-08-25T05:08:54;7.20;;;6.50;;
8042;SDS011;4064;48.132;11.366;2022-08-25T05:11:21;10.00;;;7.00;;
8042;SDS011;4064;48.132;11.366;2022-08-25T05:13:49;9.30;;;7.87;;
8042;SDS011;4064;48.132;11.366;2022-08-25T05:16:16;8.23;;;7.30;;
8042;SDS011;4064;48.132;11.366;2022-08-25T05:18:43;10.73;;;6.90;;
8042;SDS011;4064;48.132;11.366;2022-08-25T05:21:13;9.73;;;7.77;;
8042;SDS011;4064;48.132;11.366;2022-08-25T05:23:43;9.30;;;8.37;;
8042;SDS011;4064;48.132;11.366;2022-08-25T05:26:18;9.90;;;8.90;;
8042;SDS011;4064;48.132;11.366;2022-08-25T05:28:45;9.67;;;8.77;;
8042;SDS011;4064;48.132;11.366;2022-08-25T05:31:13;9.83;;;8.80;;
8042;SDS011;4064;48.132;11.366;2022-08-25T05:33:40;11.07;;;9.93;;
8042;SDS011;4064;48.132;11.366;2022-08-25T05:36:07;12.30;;;9.93;;
8042;SDS011;4064;48.132;11.366;2022-08-25T05:38:34;13.03;;;11.63;;
8042;SDS011;4064;48.132;11.366;2022-08-25T05:41:01;13.30;;;9.93;;
8042;SDS011;4064;48.132;11.366;2022-08-25T05:43:29;11.50;;;9.90;;
8042;SDS011;4064;48.132;11.366;2022-08-25T05:45:56;13.63;;;9.93;;
8042;SDS011;4064;48.132;11.366;2022-08-25T05:48:23;14.07;;;11.17;;
8042;SDS011;4064;48.132;11.366;2022-08-25T05:50:53;11.37;;;10.23;;
8042;SDS011;4064;48.132;11.366;2022-08-25T05:53:21;11.47;;;10.33;;
8042;SDS011;4064;48.132;11.366;2022-08-25T05:55:49;15.20;;;12.43;;
8042;SDS011;4064;48.132;11.366;2022-08-25T05:58:16;15.00;;;12.47;;
8042;SDS011;4064;48.132;11.366;2022-08-25T06:00:41;12.83;;;10.97;;
8042;SDS011;4064;48.132;11.366;2022-08-25T06:03:07;12.77;;;10.70;;
8042;SDS011;4064;48.132;11.366;2022-08-25T06:05:33;12.20;;;10.93;;
8042;SDS011;4064;48.132;11.366;2022-08-25T06:07:59;13.37;;;11.97;;
8042;SDS011;4064;48.132;11.366;2022-08-25T06:10:25;11.93;;;10.40;;
8042;SDS011;4064;48.132;11.366;2022-08-25T06:12:51;12.03;;;10.77;;
8042;SDS011;4064;48.132;11.366;2022-08-25T06:15:18;11.90;;;10.70;;
8042;SDS011;4064;48.132;11.366;2022-08-25T06:17:45;15.73;;;10.80;;
8042;SDS011;4064;48.132;11.366;2022-08-25T06:20:14;11.00;;;9.87;;
8042;SDS011;4064;48.132;11.366;2022-08-25T06:22:41;10.80;;;9.70;;
8042;SDS011;4064;48.132;11.366;2022-08-25T06:25:08;13.43;;;10.50;;
8042;SDS011;4064;48.132;11.366;2022-08-25T06:27:35;12.83;;;11.53;;
8042;SDS011;4064;48.132;11.366;2022-08-25T06:30:03;10.40;;;9.37;;
8042;SDS011;4064;48.132;11.366;2022-08-25T06:32:34;11.73;;;10.50;;
8042;SDS011;4064;48.132;11.366;2022-08-25T06:35:02;10.80;;;9.47;;
8042;SDS011;4064;48.132;11.366;2022-08-25T06:37:28;13.50;;;10.77;;
8042;SDS011;4064;48.132;11.366;2022-08-25T06:39:54;13.00;;;10.30;;
8042;SDS011;4064;48.132;11.366;2022-08-25T06:42:20;9.60;;;8.50;;
8042;SDS011;4064;48.132;11.366;2022-08-25T06:44:46;20.20;;;10.40;;
8042;SDS011;4064;48.132;11.366;2022-08-25T06:47:11;11.33;;;9.70;;
8042;SDS011;4064;48.132;11.366;2022-08-25T06:49:39;10.27;;;9.27;;
8042;SDS011;4064;48.132;11.366;2022-08-25T06:52:06;11.60;;;9.10;;
8042;SDS011;4064;48.132;11.366;2022-08-25T06:54:32;12.23;;;9.70;;
8042;SDS011;4064;48.132;11.366;2022-08-25T06:56:58;11.00;;;9.00;;
8042;SDS011;4064;48.132;11.366;2022-08-25T06:59:25;13.70;;;9.37;;
8042;SDS011;4064;48.132;11.366;2022-08-25T07:01:50;9.63;;;8.50;;
8042;SDS011;4064;48.132;11.366;2022-08-25T07:04:16;10.80;;;8.90;;
8042;SDS011;4064;48.132;11.366;2022-08-25T07:06:42;8.53;;;7.20;;
8042;SDS011;4064;48.132;11.366;2022-08-25T07:09:09;8.27;;;7.40;;
8042;SDS011;4064;48.132;11.366;2022-08-25T07:11:35;9.70;;;8.73;;
8042;SDS011;4064;48.132;11.366;2022-08-25T07:14:03;8.50;;;7.70;;
8042;SDS011;4064;48.132;11.366;2022-08-25T07:16:31;9.17;;;8.23;;
8042;SDS011;4064;48.132;11.366;2022-08-25T07:18:58;9.40;;;8.50;;
8042;SDS011;4064;48.132;11.366;2022-08-25T07:21:24;8.73;;;7.83;;
8042;SDS011;4064;48.132;11.366;2022-08-25T07:23:51;8.97;;;8.03;;
8042;SDS011;4064;48.132;11.366;2022-08-25T07:26:21;9.20;;;6.80;;
8042;SDS011;4064;48.132;11.366;2022-08-25T07:28:50;6.93;;;6.23;;
8042;SDS011;4064;48.132;11.366;2022-08-25T07:31:16;7.93;;;7.27;;
8042;SDS011;4064;48.132;11.366;2022-08-25T07:33:41;7.07;;;6.37;;
8042;SDS011;4064;48.132;11.366;2022-08-25T07:36:29;8.20;;;6.37;;
8042;SDS011;4064;48.132;11.366;2022-08-25T07:38:56;10.00;;;7.27;;
8042;SDS011;4064;48.132;11.366;2022-08-25T07:41:22;7.90;;;7.30;;
8042;SDS011;4064;48.132;11.366;2022-08-25T07:43:48;7.53;;;6.70;;
8042;SDS011;4064;48.132;11.366;2022-08-25T07:46:14;8.40;;;6.13;;
8042;SDS011;4064;48.132;11.366;2022-08-25T07:48:40;8.63;;;6.80;;
8042;SDS011;4064;48.132;11.366;2022-08-25T07:51:10;7.17;;;6.57;;
8042;SDS011;4064;48.132;11.366;2022-08-25T07:53:38;6.47;;;5.53;;
8042;SDS011;4064;48.132;11.366;2022-08-25T07:56:08;6.23;;;5.73;;
8042;SDS011;4064;48.132;11.366;2022-08-25T07:58:36;5.90;;;5.47;;
8042;SDS011;4064;48.132;11.366;2022-08-25T08:01:01;6.60;;;5.87;;
8042;SDS011;4064;48.132;11.366;2022-08-25T08:03:27;6.10;;;5.50;;
8042;SDS011;4064;48.132;11.366;2022-08-25T08:05:54;6.13;;;5.47;;
8042;SDS011;4064;48.132;11.366;2022-08-25T08:08:21;6.40;;;5.80;;
8042;SDS011;4064;48.132;11.366;2022-08-25T08:10:47;8.60;;;5.30;;
8042;SDS011;4064;48.132;11.366;2022-08-25T08:13:13;6.90;;;6.20;;
8042;SDS011;4064;48.132;11.366;2022-08-25T08:15:40;7.30;;;5.60;;
8042;SDS011;4064;48.132;11.366;2022-08-25T08:18:07;6.40;;;5.80;;
8042;SDS011;4064;48.132;11.366;2022-08-25T08:20:34;6.60;;;6.00;;
8042;SDS011;4064;48.132;11.366;2022-08-25T08:23:00;5.90;;;5.40;;
8042;SDS011;4064;48.132;11.366;2022-08-25T08:25:26;7.30;;;6.10;;
8042;SDS011;4064;48.132;11.366;2022-08-25T08:27:52;7.27;;;6.53;;
8042;SDS011;4064;48.132;11.366;2022-08-25T08:30:19;7.67;;;6.97;;
8042;SDS011;4064;48.132;11.366;2022-08-25T08:32:45;7.57;;;6.17;;
8042;SDS011;4064;48.132;11.366;2022-08-25T08:35:14;7.73;;;6.87;;
8042;SDS011;4064;48.132;11.366;2022-08-25T08:37:43;8.33;;;7.20;;
8042;SDS011;4064;48.132;11.366;2022-08-25T08:40:09;6.90;;;6.30;;
8042;SDS011;4064;48.132;11.366;2022-08-25T08:45:48;6.33;;;5.73;;
8042;SDS011;4064;48.132;11.366;2022-08-25T08:51:27;8.37;;;7.20;;
8042;SDS011;4064;48.132;11.366;2022-08-25T08:56:30;7.10;;;6.20;;
8042;SDS011;4064;48.132;11.366;2022-08-25T09:01:34;6.33;;;5.73;;
8042;SDS011;4064;48.132;11.366;2022-08-25T09:04:04;11.10;;;5.90;;
8042;SDS011;4064;48.132;11.366;2022-08-25T09:06:37;6.30;;;5.37;;
8042;SDS011;4064;48.132;11.366;2022-08-25T09:09:09;5.60;;;5.10;;
8042;SDS011;4064;48.132;11.366;2022-08-25T09:16:38;5.43;;;5.03;;
8042;SDS011;4064;48.132;11.366;2022-08-25T09:30:43;6.23;;;5.00;;
8042;SDS011;4064;48.132;11.366;2022-08-25T09:33:17;4.83;;;4.43;;
8042;SDS011;4064;48.132;11.366;2022-08-25T09:35:46;5.10;;;4.70;;
8042;SDS011;4064;48.132;11.366;2022-08-25T09:38:13;4.20;;;3.80;;
8042;SDS011;4064;48.132;11.366;2022-08-25T09:40:41;5.33;;;4.90;;
8042;SDS011;4064;48.132;11.366;2022-08-25T09:43:43;5.90;;;5.37;;
8042;SDS011;4064;48.132;11.366;2022-08-25T09:48:43;5.53;;;4.60;;
8042;SDS011;4064;48.132;11.366;2022-08-25T09:59:34;5.50;;;5.00;;
8042;SDS011;4064;48.132;11.366;2022-08-25T10:02:24;5.53;;;5.03;;
8042;SDS011;4064;48.132;11.366;2022-08-25T10:04:51;5.77;;;5.27;;
8042;SDS011;4064;48.132;11.366;2022-08-25T10:07:22;5.20;;;4.70;;
8042;SDS011;4064;48.132;11.366;2022-08-25T10:10:01;8.53;;;5.07;;
8042;SDS011;4064;48.132;11.366;2022-08-25T10:17:49;5.47;;;4.97;;
8042;SDS011;4064;48.132;11.366;2022-08-25T10:22:46;7.40;;;4.83;;
8042;SDS011;4064;48.132;11.366;2022-08-25T10:25:15;5.17;;;4.77;;
8042;SDS011;4064;48.132;11.366;2022-08-25T10:30:21;9.47;;;5.30;;
8042;SDS011;4064;48.132;11.366;2022-08-25T10:35:29;5.60;;;4.77;;
8042;SDS011;4064;48.132;11.366;2022-08-25T10:43:35;7.33;;;5.37;;
8042;SDS011;4064;48.132;11.366;2022-08-25T10:46:14;6.23;;;5.53;;
8042;SDS011;4064;48.132;11.366;2022-08-25T10:56:45;5.30;;;4.70;;
8042;SDS011;4064;48.132;11.366;2022-08-25T11:04:54;5.90;;;5.37;;
8042;SDS011;4064;48.132;11.366;2022-08-25T11:07:40;5.87;;;5.37;;
8042;SDS011;4064;48.132;11.366;2022-08-25T11:13:03;5.77;;;5.27;;
8042;SDS011;4064;48.132;11.366;2022-08-25T11:16:07;5.53;;;5.07;;
8042;SDS011;4064;48.132;11.366;2022-08-25T11:18:28;5.27;;;4.87;;
8042;SDS011;4064;48.132;11.366;2022-08-25T11:26:51;5.43;;;4.93;;
8042;SDS011;4064;48.132;11.366;2022-08-25T11:29:20;5.80;;;5.30;;
8042;SDS011;4064;48.132;11.366;2022-08-25T11:31:50;5.60;;;5.10;;
8042;SDS011;4064;48.132;11.366;2022-08-25T11:34:17;5.83;;;4.77;;
8042;SDS011;4064;48.132;11.366;2022-08-25T11:36:54;7.30;;;5.37;;
8042;SDS011;4064;48.132;11.366;2022-08-25T11:39:56;5.70;;;5.20;;
8042;SDS011;4064;48.132;11.366;2022-08-25T11:51:07;6.27;;;4.83;;
8042;SDS011;4064;48.132;11.366;2022-08-25T11:53:39;8.63;;;5.30;;
8042;SDS011;4064;48.132;11.366;2022-08-25T12:01:10;5.23;;;4.80;;
8042;SDS011;4064;48.132;11.366;2022-08-25T12:04:10;6.03;;;4.77;;
8042;SDS011;4064;48.132;11.366;2022-08-25T12:09:29;5.23;;;4.20;;
8042;SDS011;4064;48.132;11.366;2022-08-25T12:11:57;4.80;;;4.40;;
8042;SDS011;4064;48.132;11.366;2022-08-25T12:21:53;4.97;;;4.47;;
8042;SDS011;4064;48.132;11.366;2022-08-25T12:24:43;4.90;;;4.40;;
8042;SDS011;4064;48.132;11.366;2022-08-25T12:27:28;5.77;;;5.27;;
8042;SDS011;4064;48.132;11.366;2022-08-25T12:30:21;5.10;;;4.70;;
8042;SDS011;4064;48.132;11.366;2022-08-25T12:38:35;10.33;;;6.00;;
8042;SDS011;4064;48.132;11.366;2022-08-25T12:41:12;8.00;;;6.37;;
8042;SDS011;4064;48.132;11.366;2022-08-25T12:43:46;8.97;;;6.23;;
8042;SDS011;4064;48.132;11.366;2022-08-25T12:59:47;8.97;;;6.17;;
8042;SDS011;4064;48.132;11.366;2022-08-25T13:10:21;6.93;;;6.27;;
8042;SDS011;4064;48.132;11.366;2022-08-25T13:15:40;6.93;;;6.20;;
8042;SDS011;4064;48.132;11.366;2022-08-25T13:21:18;6.30;;;5.70;;
8042;SDS011;4064;48.132;11.366;2022-08-25T13:23:50;8.17;;;6.10;;
8042;SDS011;4064;48.132;11.366;2022-08-25T13:26:21;6.37;;;5.10;;
8042;SDS011;4064;48.132;11.366;2022-08-25T13:31:33;7.77;;;7.00;;
8042;SDS011;4064;48.132;11.366;2022-08-25T13:34:06;9.40;;;6.90;;
8042;SDS011;4064;48.132;11.366;2022-08-25T13:36:44;8.10;;;7.40;;
8042;SDS011;4064;48.132;11.366;2022-08-25T13:39:30;7.90;;;7.00;;
8042;SDS011;4064;48.132;11.366;2022-08-25T13:44:29;11.47;;;6.80;;
8042;SDS011;4064;48.132;11.366;2022-08-25T13:47:14;18.67;;;8.17;;
8042;SDS011;4064;48.132;11.366;2022-08-25T13:50:06;11.90;;;7.87;;
8042;SDS011;4064;48.132;11.366;2022-08-25T13:55:28;12.60;;;7.50;;
8042;SDS011;4064;48.132;11.366;2022-08-25T13:57:58;10.87;;;7.97;;
8042;SDS011;4064;48.132;11.366;2022-08-25T14:00:29;10.17;;;7.27;;
8042;SDS011;4064;48.132;11.366;2022-08-25T14:03:34;8.87;;;7.77;;
8042;SDS011;4064;48.132;11.366;2022-08-25T14:08:40;10.63;;;8.33;;
8042;SDS011;4064;48.132;11.366;2022-08-25T14:13:34;11.47;;;7.40;;
8042;SDS011;4064;48.132;11.366;2022-08-25T14:18:36;8.10;;;6.67;;
8042;SDS011;4064;48.132;11.366;2022-08-25T14:21:06;11.70;;;6.50;;
8042;SDS011;4064;48.132;11.366;2022-08-25T14:23:35;10.80;;;6.80;;
8042;SDS011;4064;48.132;11.366;2022-08-25T14:26:02;7.00;;;6.30;;
8042;SDS011;4064;48.132;11.366;2022-08-25T14:28:28;7.87;;;6.67;;
8042;SDS011;4064;48.132;11.366;2022-08-25T14:30:58;11.23;;;8.30;;
8042;SDS011;4064;48.132;11.366;2022-08-25T14:33:31;7.03;;;6.33;;
8042;SDS011;4064;48.132;11.366;2022-08-25T14:36:18;7.50;;;6.80;;
8042;SDS011;4064;48.132;11.366;2022-08-25T14:38:44;11.90;;;6.77;;
8042;SDS011;4064;48.132;11.366;2022-08-25T14:41:09;7.73;;;6.93;;
8042;SDS011;4064;48.132;11.366;2022-08-25T14:43:36;11.80;;;7.30;;
8042;SDS011;4064;48.132;11.366;2022-08-25T14:46:05;9.33;;;6.50;;
8042;SDS011;4064;48.132;11.366;2022-08-25T14:48:43;11.50;;;6.80;;
8042;SDS011;4064;48.132;11.366;2022-08-25T14:51:11;9.10;;;7.10;;
8042;SDS011;4064;48.132;11.366;2022-08-25T14:53:38;10.17;;;6.93;;
8042;SDS011;4064;48.132;11.366;2022-08-25T14:56:05;8.40;;;7.17;;
8042;SDS011;4064;48.132;11.366;2022-08-25T14:58:30;10.67;;;7.43;;
8042;SDS011;4064;48.132;11.366;2022-08-25T15:00:56;11.53;;;9.10;;
8042;SDS011;4064;48.132;11.366;2022-08-25T15:03:30;14.50;;;7.80;;
8042;SDS011;4064;48.132;11.366;2022-08-25T15:05:59;12.13;;;7.17;;
8042;SDS011;4064;48.132;11.366;2022-08-25T15:08:26;9.77;;;7.40;;
8042;SDS011;4064;48.132;11.366;2022-08-25T15:11:11;9.13;;;6.43;;
8042;SDS011;4064;48.132;11.366;2022-08-25T15:13:38;11.83;;;7.10;;
8042;SDS011;4064;48.132;11.366;2022-08-25T15:16:04;10.50;;;7.63;;
8042;SDS011;4064;48.132;11.366;2022-08-25T15:18:33;11.13;;;7.33;;
8042;SDS011;4064;48.132;11.366;2022-08-25T15:21:02;16.80;;;9.37;;
8042;SDS011;4064;48.132;11.366;2022-08-25T15:23:28;9.90;;;7.97;;
8042;SDS011;4064;48.132;11.366;2022-08-25T15:25:54;9.30;;;7.30;;
8042;SDS011;4064;48.132;11.366;2022-08-25T15:28:20;8.73;;;6.50;;
8042;SDS011;4064;48.132;11.366;2022-08-25T15:30:46;10.10;;;7.70;;
8042;SDS011;4064;48.132;11.366;2022-08-25T15:33:15;12.10;;;7.90;;
8042;SDS011;4064;48.132;11.366;2022-08-25T15:35:41;12.57;;;8.33;;
8042;SDS011;4064;48.132;11.366;2022-08-25T15:38:07;11.93;;;8.07;;
8042;SDS011;4064;48.132;11.366;2022-08-25T15:40:33;9.03;;;7.63;;
8042;SDS011;4064;48.132;11.366;2022-08-25T15:43:01;8.83;;;7.30;;
8042;SDS011;4064;48.132;11.366;2022-08-25T15:45:27;14.40;;;7.63;;
8042;SDS011;4064;48.132;11.366;2022-08-25T15:47:52;14.87;;;7.60;;
8042;SDS011;4064;48.132;11.366;2022-08-25T15:50:19;13.80;;;8.20;;
8042;SDS011;4064;48.132;11.366;2022-08-25T15:52:46;10.87;;;7.70;;
8042;SDS011;4064;48.132;11.366;2022-08-25T15:55:12;9.07;;;7.87;;
8042;SDS011;4064;48.132;11.366;2022-08-25T15:57:38;9.37;;;8.20;;
8042;SDS011;4064;48.132;11.366;2022-08-25T16:00:05;14.50;;;8.73;;
8042;SDS011;4064;48.132;11.366;2022-08-25T16:02:35;14.23;;;8.37;;
8042;SDS011;4064;48.132;11.366;2022-08-25T16:05:01;12.97;;;8.63;;
8042;SDS011;4064;48.132;11.366;2022-08-25T16:07:26;17.00;;;11.37;;
8042;SDS011;4064;48.132;11.366;2022-08-25T16:09:55;15.00;;;9.80;;
8042;SDS011;4064;48.132;11.366;2022-08-25T16:12:22;15.33;;;9.40;;
8042;SDS011;4064;48.132;11.366;2022-08-25T16:14:49;20.10;;;8.97;;
8042;SDS011;4064;48.132;11.366;2022-08-25T16:17:18;12.00;;;9.17;;
8042;SDS011;4064;48.132;11.366;2022-08-25T16:19:44;13.93;;;9.23;;
8042;SDS011;4064;48.132;11.366;2022-08-25T16:22:11;13.73;;;8.20;;
8042;SDS011;4064;48.132;11.366;2022-08-25T16:24:37;14.83;;;9.40;;
8042;SDS011;4064;48.132;11.366;2022-08-25T16:27:11;11.27;;;8.80;;
8042;SDS011;4064;48.132;11.366;2022-08-25T16:29:38;12.80;;;9.33;;
8042;SDS011;4064;48.132;11.366;2022-08-25T16:32:05;13.13;;;8.67;;
8042;SDS011;4064;48.132;11.366;2022-08-25T16:34:32;14.77;;;8.40;;
8042;SDS011;4064;48.132;11.366;2022-08-25T16:36:58;16.83;;;9.00;;
8042;SDS011;4064;48.132;11.366;2022-08-25T16:39:24;13.53;;;9.23;;
8042;SDS011;4064;48.132;11.366;2022-08-25T16:41:50;14.60;;;9.10;;
8042;SDS011;4064;48.132;11.366;2022-08-25T16:44:16;11.90;;;8.20;;
8042;SDS011;4064;48.132;11.366;2022-08-25T16:46:42;14.53;;;8.57;;
8042;SDS011;4064;48.132;11.366;2022-08-25T16:49:09;12.10;;;8.33;;
8042;SDS011;4064;48.132;11.366;2022-08-25T16:51:36;14.53;;;10.20;;
8042;SDS011;4064;48.132;11.366;2022-08-25T16:54:02;12.60;;;8.83;;
8042;SDS011;4064;48.132;11.366;2022-08-25T16:56:48;13.37;;;8.53;;
8042;SDS011;4064;48.132;11.366;2022-08-25T16:59:14;10.40;;;7.83;;
8042;SDS011;4064;48.132;11.366;2022-08-25T17:01:40;12.40;;;8.53;;
8042;SDS011;4064;48.132;11.366;2022-08-25T17:04:07;11.40;;;8.73;;
8042;SDS011;4064;48.132;11.366;2022-08-25T17:06:34;11.20;;;7.73;;
8042;SDS011;4064;48.132;11.366;2022-08-25T17:09:02;11.10;;;7.13;;
8042;SDS011;4064;48.132;11.366;2022-08-25T17:11:30;13.77;;;8.80;;
8042;SDS011;4064;48.132;11.366;2022-08-25T17:14:00;16.90;;;8.83;;
8042;SDS011;4064;48.132;11.366;2022-08-25T17:16:30;9.87;;;7.97;;
8042;SDS011;4064;48.132;11.366;2022-08-25T17:18:58;10.80;;;8.37;;
8042;SDS011;4064;48.132;11.366;2022-08-25T17:21:25;15.90;;;7.93;;
8042;SDS011;4064;48.132;11.366;2022-08-25T17:23:54;17.20;;;12.60;;
8042;SDS011;4064;48.132;11.366;2022-08-25T17:26:22;17.13;;;8.53;;
8042;SDS011;4064;48.132;11.366;2022-08-25T17:28:49;15.03;;;8.90;;
8042;SDS011;4064;48.132;11.366;2022-08-25T17:31:15;15.53;;;8.37;;
8042;SDS011;4064;48.132;11.366;2022-08-25T17:33:41;11.23;;;8.10;;
8042;SDS011;4064;48.132;11.366;2022-08-25T17:36:08;14.07;;;8.60;;
8042;SDS011;4064;48.132;11.366;2022-08-25T17:38:34;14.20;;;7.97;;
8042;SDS011;4064;48.132;11.366;2022-08-25T17:41:01;15.50;;;8.43;;
8042;SDS011;4064;48.132;11.366;2022-08-25T17:43:31;13.93;;;8.93;;